sensor_id;sensor_type;location;lat;lon;timestamp;P1;durP1;ratioP1;P2;durP2;ratioP2
23802;SDS011;12082;51.786;6.018;2023-04-25T00:02:24;31.00;;;28.70;;
23802;SDS011;12082;51.786;6.018;2023-04-25T00:04:50;33.50;;;31.13;;
23802;SDS011;12082;51.786;6.018;2023-04-25T00:07:15;32.40;;;29.93;;
23802;SDS011;12082;51.786;6.018;2023-04-25T00:09:41;35.23;;;32.67;;
23802;SDS011;12082;51.786;6.018;2023-04-25T00:12:07;35.67;;;33.40;;
23802;SDS011;12082;51.786;6.018;2023-04-25T00:14:32;38.60;;;36.10;;
23802;SDS011;12082;51.786;6.018;2023-04-25T00:16:59;35.47;;;33.10;;
23802;SDS011;12082;51.786;6.018;2023-04-25T00:19:24;36.40;;;33.57;;
23802;SDS011;12082;51.786;6.018;2023-04-25T00:21:51;35.50;;;33.07;;
23802;SDS011;12082;51.786;6.018;2023-04-25T00:24:18;36.67;;;33.93;;
23802;SDS011;12082;51.786;6.018;2023-04-25T00:26:44;37.27;;;34.43;;
23802;SDS011;12082;51.786;6.018;2023-04-25T00:29:09;35.50;;;32.97;;
23802;SDS011;12082;51.786;6.018;2023-04-25T00:31:35;34.97;;;32.50;;
23802;SDS011;12082;51.786;6.018;2023-04-25T00:34:01;33.57;;;31.40;;
23802;SDS011;12082;51.786;6.018;2023-04-25T00:36:26;34.13;;;31.30;;
23802;SDS011;12082;51.786;6.018;2023-04-25T00:38:52;33.10;;;30.47;;
23802;SDS011;12082;51.786;6.018;2023-04-25T00:41:19;33.60;;;31.33;;
23802;SDS011;12082;51.786;6.018;2023-04-25T00:43:46;35.70;;;33.23;;
23802;SDS011;12082;51.786;6.018;2023-04-25T00:46:13;34.23;;;31.93;;
23802;SDS011;12082;51.786;6.018;2023-04-25T00:48:38;32.23;;;30.20;;
23802;SDS011;12082;51.786;6.018;2023-04-25T00:51:04;34.97;;;32.60;;
23802;SDS011;12082;51.786;6.018;2023-04-25T00:53:30;34.93;;;32.23;;
23802;SDS011;12082;51.786;6.018;2023-04-25T00:55:57;35.47;;;33.03;;
23802;SDS011;12082;51.786;6.018;2023-04-25T00:58:23;36.70;;;33.93;;
23802;SDS011;12082;51.786;6.018;2023-04-25T01:00:50;37.57;;;34.77;;
23802;SDS011;12082;51.786;6.018;2023-04-25T01:03:17;35.10;;;32.97;;
23802;SDS011;12082;51.786;6.018;2023-04-25T01:05:44;36.73;;;34.07;;
23802;SDS011;12082;51.786;6.018;2023-04-25T01:08:10;35.30;;;32.47;;
23802;SDS011;12082;51.786;6.018;2023-04-25T01:10:36;35.67;;;32.80;;
23802;SDS011;12082;51.786;6.018;2023-04-25T01:13:02;34.40;;;31.90;;
23802;SDS011;12082;51.786;6.018;2023-04-25T01:15:28;34.87;;;32.37;;
23802;SDS011;12082;51.786;6.018;2023-04-25T01:17:54;34.10;;;31.73;;
23802;SDS011;12082;51.786;6.018;2023-04-25T01:20:20;35.63;;;33.10;;
23802;SDS011;12082;51.786;6.018;2023-04-25T01:22:51;37.47;;;34.43;;
23802;SDS011;12082;51.786;6.018;2023-04-25T01:25:18;38.23;;;35.43;;
23802;SDS011;12082;51.786;6.018;2023-04-25T01:27:44;40.53;;;37.43;;
23802;SDS011;12082;51.786;6.018;2023-04-25T01:30:10;39.60;;;36.17;;
23802;SDS011;12082;51.786;6.018;2023-04-25T01:32:35;36.77;;;33.93;;
23802;SDS011;12082;51.786;6.018;2023-04-25T01:35:05;38.73;;;35.63;;
23802;SDS011;12082;51.786;6.018;2023-04-25T01:37:35;36.77;;;34.03;;
23802;SDS011;12082;51.786;6.018;2023-04-25T01:40:06;38.60;;;35.33;;
23802;SDS011;12082;51.786;6.018;2023-04-25T01:42:33;36.90;;;33.60;;
23802;SDS011;12082;51.786;6.018;2023-04-25T01:44:59;37.87;;;34.73;;
23802;SDS011;12082;51.786;6.018;2023-04-25T01:47:25;39.47;;;35.93;;
23802;SDS011;12082;51.786;6.018;2023-04-25T01:49:51;39.00;;;35.27;;
23802;SDS011;12082;51.786;6.018;2023-04-25T01:52:16;38.97;;;36.10;;
23802;SDS011;12082;51.786;6.018;2023-04-25T01:54:42;39.37;;;35.70;;
23802;SDS011;12082;51.786;6.018;2023-04-25T01:57:10;39.87;;;36.80;;
23802;SDS011;12082;51.786;6.018;2023-04-25T01:59:36;40.23;;;36.90;;
23802;SDS011;12082;51.786;6.018;2023-04-25T02:02:02;39.93;;;36.97;;
23802;SDS011;12082;51.786;6.018;2023-04-25T02:04:29;40.13;;;36.43;;
23802;SDS011;12082;51.786;6.018;2023-04-25T02:06:55;38.90;;;36.30;;
23802;SDS011;12082;51.786;6.018;2023-04-25T02:09:21;41.40;;;38.00;;
23802;SDS011;12082;51.786;6.018;2023-04-25T02:11:46;41.37;;;37.93;;
23802;SDS011;12082;51.786;6.018;2023-04-25T02:14:12;43.83;;;40.60;;
23802;SDS011;12082;51.786;6.018;2023-04-25T02:16:38;41.40;;;38.07;;
23802;SDS011;12082;51.786;6.018;2023-04-25T02:19:04;40.63;;;37.10;;
23802;SDS011;12082;51.786;6.018;2023-04-25T02:21:30;41.43;;;38.10;;
23802;SDS011;12082;51.786;6.018;2023-04-25T02:23:56;43.13;;;39.90;;
23802;SDS011;12082;51.786;6.018;2023-04-25T02:26:22;41.67;;;38.47;;
23802;SDS011;12082;51.786;6.018;2023-04-25T02:28:48;43.70;;;40.03;;
23802;SDS011;12082;51.786;6.018;2023-04-25T02:31:15;40.43;;;36.77;;
23802;SDS011;12082;51.786;6.018;2023-04-25T02:33:41;42.63;;;39.00;;
23802;SDS011;12082;51.786;6.018;2023-04-25T02:36:07;42.07;;;38.63;;
23802;SDS011;12082;51.786;6.018;2023-04-25T02:38:32;42.47;;;38.47;;
23802;SDS011;12082;51.786;6.018;2023-04-25T02:40:58;43.80;;;39.80;;
23802;SDS011;12082;51.786;6.018;2023-04-25T02:43:23;44.70;;;40.97;;
23802;SDS011;12082;51.786;6.018;2023-04-25T02:45:49;44.20;;;40.60;;
23802;SDS011;12082;51.786;6.018;2023-04-25T02:48:15;41.93;;;38.20;;
23802;SDS011;12082;51.786;6.018;2023-04-25T02:50:40;42.77;;;39.30;;
23802;SDS011;12082;51.786;6.018;2023-04-25T02:53:06;43.80;;;39.63;;
23802;SDS011;12082;51.786;6.018;2023-04-25T02:55:31;40.23;;;36.90;;
23802;SDS011;12082;51.786;6.018;2023-04-25T02:57:57;41.73;;;38.07;;
23802;SDS011;12082;51.786;6.018;2023-04-25T03:00:22;40.87;;;37.90;;
23802;SDS011;12082;51.786;6.018;2023-04-25T03:02:48;41.27;;;37.97;;
23802;SDS011;12082;51.786;6.018;2023-04-25T03:05:13;40.67;;;37.07;;
23802;SDS011;12082;51.786;6.018;2023-04-25T03:07:39;42.00;;;38.23;;
23802;SDS011;12082;51.786;6.018;2023-04-25T03:10:08;39.13;;;35.97;;
23802;SDS011;12082;51.786;6.018;2023-04-25T03:12:33;37.97;;;35.07;;
23802;SDS011;12082;51.786;6.018;2023-04-25T03:14:59;38.47;;;34.67;;
23802;SDS011;12082;51.786;6.018;2023-04-25T03:17:25;36.57;;;33.67;;
23802;SDS011;12082;51.786;6.018;2023-04-25T03:19:50;37.93;;;34.87;;
23802;SDS011;12082;51.786;6.018;2023-04-25T03:22:16;37.57;;;34.53;;
23802;SDS011;12082;51.786;6.018;2023-04-25T03:24:41;34.27;;;31.60;;
23802;SDS011;12082;51.786;6.018;2023-04-25T03:27:07;35.90;;;33.40;;
23802;SDS011;12082;51.786;6.018;2023-04-25T03:29:32;38.33;;;34.03;;
23802;SDS011;12082;51.786;6.018;2023-04-25T03:31:58;38.27;;;34.60;;
23802;SDS011;12082;51.786;6.018;2023-04-25T03:34:23;38.63;;;35.33;;
23802;SDS011;12082;51.786;6.018;2023-04-25T03:36:49;35.63;;;32.47;;
23802;SDS011;12082;51.786;6.018;2023-04-25T03:39:14;35.80;;;32.27;;
23802;SDS011;12082;51.786;6.018;2023-04-25T03:41:40;36.07;;;32.70;;
23802;SDS011;12082;51.786;6.018;2023-04-25T03:44:06;35.80;;;32.47;;
23802;SDS011;12082;51.786;6.018;2023-04-25T03:46:31;33.37;;;31.07;;
23802;SDS011;12082;51.786;6.018;2023-04-25T03:48:57;36.70;;;33.20;;
23802;SDS011;12082;51.786;6.018;2023-04-25T03:51:24;38.13;;;34.50;;
23802;SDS011;12082;51.786;6.018;2023-04-25T03:53:50;38.33;;;34.60;;
23802;SDS011;12082;51.786;6.018;2023-04-25T03:56:16;35.67;;;32.40;;
23802;SDS011;12082;51.786;6.018;2023-04-25T03:58:42;35.60;;;32.57;;
23802;SDS011;12082;51.786;6.018;2023-04-25T04:01:07;34.17;;;31.33;;
23802;SDS011;12082;51.786;6.018;2023-04-25T04:03:33;34.07;;;31.23;;
23802;SDS011;12082;51.786;6.018;2023-04-25T04:06:03;41.47;;;33.97;;
23802;SDS011;12082;51.786;6.018;2023-04-25T04:08:30;34.93;;;31.50;;
23802;SDS011;12082;51.786;6.018;2023-04-25T04:10:59;35.23;;;31.57;;
23802;SDS011;12082;51.786;6.018;2023-04-25T04:13:28;33.43;;;30.70;;
23802;SDS011;12082;51.786;6.018;2023-04-25T04:15:54;34.83;;;31.47;;
23802;SDS011;12082;51.786;6.018;2023-04-25T04:18:20;34.23;;;31.23;;
23802;SDS011;12082;51.786;6.018;2023-04-25T04:20:46;33.30;;;30.23;;
23802;SDS011;12082;51.786;6.018;2023-04-25T04:23:12;36.80;;;33.60;;
23802;SDS011;12082;51.786;6.018;2023-04-25T04:25:38;35.70;;;32.67;;
23802;SDS011;12082;51.786;6.018;2023-04-25T04:28:04;36.37;;;32.80;;
23802;SDS011;12082;51.786;6.018;2023-04-25T04:30:30;37.43;;;33.40;;
23802;SDS011;12082;51.786;6.018;2023-04-25T04:32:57;36.87;;;33.60;;
23802;SDS011;12082;51.786;6.018;2023-04-25T04:35:23;35.93;;;32.80;;
23802;SDS011;12082;51.786;6.018;2023-04-25T04:37:49;37.70;;;34.93;;
23802;SDS011;12082;51.786;6.018;2023-04-25T04:40:15;37.10;;;34.03;;
23802;SDS011;12082;51.786;6.018;2023-04-25T04:42:42;37.90;;;34.40;;
23802;SDS011;12082;51.786;6.018;2023-04-25T04:45:10;37.53;;;33.97;;
23802;SDS011;12082;51.786;6.018;2023-04-25T04:47:36;38.40;;;34.50;;
23802;SDS011;12082;51.786;6.018;2023-04-25T04:50:06;38.70;;;34.80;;
23802;SDS011;12082;51.786;6.018;2023-04-25T04:52:33;39.73;;;36.23;;
23802;SDS011;12082;51.786;6.018;2023-04-25T04:55:00;38.83;;;35.93;;
23802;SDS011;12082;51.786;6.018;2023-04-25T04:57:26;38.57;;;35.17;;
23802;SDS011;12082;51.786;6.018;2023-04-25T04:59:52;37.63;;;34.40;;
23802;SDS011;12082;51.786;6.018;2023-04-25T05:02:18;36.87;;;33.73;;
23802;SDS011;12082;51.786;6.018;2023-04-25T05:04:43;38.33;;;35.10;;
23802;SDS011;12082;51.786;6.018;2023-04-25T05:07:10;40.07;;;36.57;;
23802;SDS011;12082;51.786;6.018;2023-04-25T05:09:35;39.93;;;36.37;;
23802;SDS011;12082;51.786;6.018;2023-04-25T05:12:01;38.33;;;35.33;;
23802;SDS011;12082;51.786;6.018;2023-04-25T05:14:27;38.47;;;35.40;;
23802;SDS011;12082;51.786;6.018;2023-04-25T05:16:52;38.13;;;34.50;;
23802;SDS011;12082;51.786;6.018;2023-04-25T05:19:18;39.70;;;36.17;;
23802;SDS011;12082;51.786;6.018;2023-04-25T05:21:43;39.00;;;35.00;;
23802;SDS011;12082;51.786;6.018;2023-04-25T05:24:09;38.30;;;34.63;;
23802;SDS011;12082;51.786;6.018;2023-04-25T05:26:34;37.97;;;34.60;;
23802;SDS011;12082;51.786;6.018;2023-04-25T05:29:00;36.03;;;33.23;;
23802;SDS011;12082;51.786;6.018;2023-04-25T05:31:25;36.73;;;32.77;;
23802;SDS011;12082;51.786;6.018;2023-04-25T05:33:51;30.80;;;27.70;;
23802;SDS011;12082;51.786;6.018;2023-04-25T05:36:18;30.57;;;27.87;;
23802;SDS011;12082;51.786;6.018;2023-04-25T05:38:44;36.37;;;26.23;;
23802;SDS011;12082;51.786;6.018;2023-04-25T05:41:10;30.53;;;25.80;;
23802;SDS011;12082;51.786;6.018;2023-04-25T05:43:35;27.83;;;24.93;;
23802;SDS011;12082;51.786;6.018;2023-04-25T05:46:01;28.23;;;25.37;;
23802;SDS011;12082;51.786;6.018;2023-04-25T05:48:26;32.60;;;26.77;;
23802;SDS011;12082;51.786;6.018;2023-04-25T05:50:52;31.27;;;27.30;;
23802;SDS011;12082;51.786;6.018;2023-04-25T05:53:18;30.47;;;27.63;;
23802;SDS011;12082;51.786;6.018;2023-04-25T05:55:44;31.37;;;28.40;;
23802;SDS011;12082;51.786;6.018;2023-04-25T05:58:11;30.17;;;27.50;;
23802;SDS011;12082;51.786;6.018;2023-04-25T06:00:36;35.30;;;31.90;;
23802;SDS011;12082;51.786;6.018;2023-04-25T06:03:02;41.17;;;37.67;;
23802;SDS011;12082;51.786;6.018;2023-04-25T06:05:28;45.57;;;41.90;;
23802;SDS011;12082;51.786;6.018;2023-04-25T06:07:53;48.90;;;45.17;;
23802;SDS011;12082;51.786;6.018;2023-04-25T06:10:19;46.10;;;42.47;;
23802;SDS011;12082;51.786;6.018;2023-04-25T06:12:44;47.43;;;43.73;;
23802;SDS011;12082;51.786;6.018;2023-04-25T06:15:10;47.23;;;44.13;;
23802;SDS011;12082;51.786;6.018;2023-04-25T06:17:35;52.27;;;48.90;;
23802;SDS011;12082;51.786;6.018;2023-04-25T06:20:01;55.67;;;51.50;;
23802;SDS011;12082;51.786;6.018;2023-04-25T06:22:28;56.43;;;52.37;;
23802;SDS011;12082;51.786;6.018;2023-04-25T06:24:54;49.07;;;45.90;;
23802;SDS011;12082;51.786;6.018;2023-04-25T06:27:22;45.13;;;41.50;;
23802;SDS011;12082;51.786;6.018;2023-04-25T06:29:47;51.97;;;48.90;;
23802;SDS011;12082;51.786;6.018;2023-04-25T06:32:13;56.43;;;52.40;;
23802;SDS011;12082;51.786;6.018;2023-04-25T06:34:39;45.33;;;42.20;;
23802;SDS011;12082;51.786;6.018;2023-04-25T06:37:04;36.83;;;34.03;;
23802;SDS011;12082;51.786;6.018;2023-04-25T06:39:30;32.07;;;29.17;;
23802;SDS011;12082;51.786;6.018;2023-04-25T06:41:55;26.70;;;24.93;;
23802;SDS011;12082;51.786;6.018;2023-04-25T06:44:21;26.53;;;24.00;;
23802;SDS011;12082;51.786;6.018;2023-04-25T06:46:48;26.70;;;25.13;;
23802;SDS011;12082;51.786;6.018;2023-04-25T06:49:14;29.00;;;26.10;;
23802;SDS011;12082;51.786;6.018;2023-04-25T06:51:40;25.80;;;23.30;;
23802;SDS011;12082;51.786;6.018;2023-04-25T06:54:06;22.50;;;20.33;;
23802;SDS011;12082;51.786;6.018;2023-04-25T06:56:31;22.30;;;18.97;;
23802;SDS011;12082;51.786;6.018;2023-04-25T06:58:57;20.13;;;18.20;;
23802;SDS011;12082;51.786;6.018;2023-04-25T07:01:22;19.20;;;17.23;;
23802;SDS011;12082;51.786;6.018;2023-04-25T07:03:48;21.43;;;19.53;;
23802;SDS011;12082;51.786;6.018;2023-04-25T07:06:14;23.73;;;21.73;;
23802;SDS011;12082;51.786;6.018;2023-04-25T07:08:39;28.03;;;25.80;;
23802;SDS011;12082;51.786;6.018;2023-04-25T07:11:05;31.40;;;28.07;;
23802;SDS011;12082;51.786;6.018;2023-04-25T07:13:30;30.30;;;27.57;;
23802;SDS011;12082;51.786;6.018;2023-04-25T07:15:56;27.43;;;25.20;;
23802;SDS011;12082;51.786;6.018;2023-04-25T07:18:22;28.03;;;26.03;;
23802;SDS011;12082;51.786;6.018;2023-04-25T07:20:47;25.33;;;23.53;;
23802;SDS011;12082;51.786;6.018;2023-04-25T07:23:13;22.43;;;20.67;;
23802;SDS011;12082;51.786;6.018;2023-04-25T07:25:38;17.27;;;15.87;;
23802;SDS011;12082;51.786;6.018;2023-04-25T07:28:04;16.90;;;14.80;;
23802;SDS011;12082;51.786;6.018;2023-04-25T07:30:30;15.43;;;12.83;;
23802;SDS011;12082;51.786;6.018;2023-04-25T07:32:55;17.07;;;12.73;;
23802;SDS011;12082;51.786;6.018;2023-04-25T07:35:21;15.83;;;13.50;;
23802;SDS011;12082;51.786;6.018;2023-04-25T07:37:47;19.60;;;15.03;;
23802;SDS011;12082;51.786;6.018;2023-04-25T07:40:13;16.63;;;15.30;;
23802;SDS011;12082;51.786;6.018;2023-04-25T07:42:40;19.47;;;16.17;;
23802;SDS011;12082;51.786;6.018;2023-04-25T07:45:06;17.13;;;15.47;;
23802;SDS011;12082;51.786;6.018;2023-04-25T07:47:32;15.73;;;14.37;;
23802;SDS011;12082;51.786;6.018;2023-04-25T07:49:57;16.10;;;14.43;;
23802;SDS011;12082;51.786;6.018;2023-04-25T07:52:23;16.83;;;15.07;;
23802;SDS011;12082;51.786;6.018;2023-04-25T07:54:49;16.53;;;14.20;;
23802;SDS011;12082;51.786;6.018;2023-04-25T07:57:14;20.70;;;15.57;;
23802;SDS011;12082;51.786;6.018;2023-04-25T07:59:41;15.57;;;13.97;;
23802;SDS011;12082;51.786;6.018;2023-04-25T08:02:07;17.70;;;14.90;;
23802;SDS011;12082;51.786;6.018;2023-04-25T08:04:33;15.03;;;13.80;;
23802;SDS011;12082;51.786;6.018;2023-04-25T08:06:58;18.93;;;14.07;;
23802;SDS011;12082;51.786;6.018;2023-04-25T08:09:24;15.53;;;14.10;;
23802;SDS011;12082;51.786;6.018;2023-04-25T08:11:50;16.83;;;14.50;;
23802;SDS011;12082;51.786;6.018;2023-04-25T08:14:15;15.77;;;14.20;;
23802;SDS011;12082;51.786;6.018;2023-04-25T08:16:41;15.73;;;13.77;;
23802;SDS011;12082;51.786;6.018;2023-04-25T08:19:07;19.17;;;15.10;;
23802;SDS011;12082;51.786;6.018;2023-04-25T08:21:32;16.50;;;15.20;;
23802;SDS011;12082;51.786;6.018;2023-04-25T08:23:58;16.87;;;15.47;;
23802;SDS011;12082;51.786;6.018;2023-04-25T08:26:24;18.63;;;17.10;;
23802;SDS011;12082;51.786;6.018;2023-04-25T08:28:50;23.13;;;21.53;;
23802;SDS011;12082;51.786;6.018;2023-04-25T08:31:16;21.43;;;19.80;;
23802;SDS011;12082;51.786;6.018;2023-04-25T08:33:42;20.80;;;19.20;;
23802;SDS011;12082;51.786;6.018;2023-04-25T08:36:08;20.13;;;18.33;;
23802;SDS011;12082;51.786;6.018;2023-04-25T08:38:33;18.47;;;16.70;;
23802;SDS011;12082;51.786;6.018;2023-04-25T08:40:59;19.20;;;17.70;;
23802;SDS011;12082;51.786;6.018;2023-04-25T08:43:26;19.00;;;17.47;;
23802;SDS011;12082;51.786;6.018;2023-04-25T08:45:56;19.70;;;17.97;;
23802;SDS011;12082;51.786;6.018;2023-04-25T08:48:24;20.97;;;19.27;;
23802;SDS011;12082;51.786;6.018;2023-04-25T08:50:53;23.93;;;22.10;;
23802;SDS011;12082;51.786;6.018;2023-04-25T08:53:21;28.73;;;26.87;;
23802;SDS011;12082;51.786;6.018;2023-04-25T08:55:50;30.27;;;27.70;;
23802;SDS011;12082;51.786;6.018;2023-04-25T08:58:18;29.50;;;27.07;;
23802;SDS011;12082;51.786;6.018;2023-04-25T09:00:45;30.73;;;28.57;;
23802;SDS011;12082;51.786;6.018;2023-04-25T09:03:11;33.13;;;30.87;;
23802;SDS011;12082;51.786;6.018;2023-04-25T09:05:37;28.07;;;26.40;;
23802;SDS011;12082;51.786;6.018;2023-04-25T09:08:05;29.43;;;27.57;;
23802;SDS011;12082;51.786;6.018;2023-04-25T09:10:31;30.00;;;27.20;;
23802;SDS011;12082;51.786;6.018;2023-04-25T09:13:10;20.97;;;19.33;;
23802;SDS011;12082;51.786;6.018;2023-04-25T09:15:46;20.10;;;18.50;;
23802;SDS011;12082;51.786;6.018;2023-04-25T09:18:23;18.10;;;16.57;;
23802;SDS011;12082;51.786;6.018;2023-04-25T09:20:54;18.90;;;17.30;;
23802;SDS011;12082;51.786;6.018;2023-04-25T09:23:21;18.63;;;16.87;;
23802;SDS011;12082;51.786;6.018;2023-04-25T09:25:48;18.60;;;17.20;;
23802;SDS011;12082;51.786;6.018;2023-04-25T09:28:15;17.00;;;15.60;;
23802;SDS011;12082;51.786;6.018;2023-04-25T09:30:41;17.23;;;15.43;;
23802;SDS011;12082;51.786;6.018;2023-04-25T09:33:08;20.73;;;18.97;;
23802;SDS011;12082;51.786;6.018;2023-04-25T09:35:35;18.63;;;16.60;;
23802;SDS011;12082;51.786;6.018;2023-04-25T09:40:45;20.93;;;19.50;;
23802;SDS011;12082;51.786;6.018;2023-04-25T09:43:18;21.70;;;20.47;;
23802;SDS011;12082;51.786;6.018;2023-04-25T09:45:45;23.37;;;21.40;;
23802;SDS011;12082;51.786;6.018;2023-04-25T09:48:14;20.77;;;19.03;;
23802;SDS011;12082;51.786;6.018;2023-04-25T09:53:34;19.33;;;18.00;;
23802;SDS011;12082;51.786;6.018;2023-04-25T09:56:05;24.13;;;21.23;;
23802;SDS011;12082;51.786;6.018;2023-04-25T09:58:32;22.40;;;20.90;;
23802;SDS011;12082;51.786;6.018;2023-04-25T10:01:02;22.40;;;20.63;;
23802;SDS011;12082;51.786;6.018;2023-04-25T10:03:29;22.17;;;20.67;;
23802;SDS011;12082;51.786;6.018;2023-04-25T10:05:57;22.07;;;20.90;;
23802;SDS011;12082;51.786;6.018;2023-04-25T10:08:25;28.27;;;26.43;;
23802;SDS011;12082;51.786;6.018;2023-04-25T10:11:00;26.53;;;24.80;;
23802;SDS011;12082;51.786;6.018;2023-04-25T10:13:28;23.10;;;21.90;;
23802;SDS011;12082;51.786;6.018;2023-04-25T10:15:55;22.33;;;21.30;;
23802;SDS011;12082;51.786;6.018;2023-04-25T10:18:26;21.70;;;20.67;;
23802;SDS011;12082;51.786;6.018;2023-04-25T10:20:56;20.57;;;19.63;;
23802;SDS011;12082;51.786;6.018;2023-04-25T10:23:23;20.80;;;19.43;;
23802;SDS011;12082;51.786;6.018;2023-04-25T10:25:50;18.80;;;17.70;;
23802;SDS011;12082;51.786;6.018;2023-04-25T10:28:17;18.73;;;17.20;;
23802;SDS011;12082;51.786;6.018;2023-04-25T10:30:59;17.67;;;16.63;;
23802;SDS011;12082;51.786;6.018;2023-04-25T10:33:32;18.17;;;17.00;;
23802;SDS011;12082;51.786;6.018;2023-04-25T10:36:07;19.70;;;18.57;;
23802;SDS011;12082;51.786;6.018;2023-04-25T10:38:34;17.60;;;16.50;;
23802;SDS011;12082;51.786;6.018;2023-04-25T10:41:04;15.67;;;14.70;;
23802;SDS011;12082;51.786;6.018;2023-04-25T10:43:40;15.30;;;14.40;;
23802;SDS011;12082;51.786;6.018;2023-04-25T10:51:25;17.27;;;16.10;;
23802;SDS011;12082;51.786;6.018;2023-04-25T10:56:21;15.77;;;14.47;;
23802;SDS011;12082;51.786;6.018;2023-04-25T10:58:47;13.73;;;12.57;;
23802;SDS011;12082;51.786;6.018;2023-04-25T11:01:14;13.00;;;12.10;;
23802;SDS011;12082;51.786;6.018;2023-04-25T11:03:44;14.67;;;13.23;;
23802;SDS011;12082;51.786;6.018;2023-04-25T11:09:03;13.87;;;12.50;;
23802;SDS011;12082;51.786;6.018;2023-04-25T11:11:38;12.90;;;12.10;;
23802;SDS011;12082;51.786;6.018;2023-04-25T11:14:04;15.30;;;13.90;;
23802;SDS011;12082;51.786;6.018;2023-04-25T11:16:29;16.83;;;15.40;;
23802;SDS011;12082;51.786;6.018;2023-04-25T11:18:56;18.27;;;16.83;;
23802;SDS011;12082;51.786;6.018;2023-04-25T11:21:23;16.27;;;15.07;;
23802;SDS011;12082;51.786;6.018;2023-04-25T11:23:51;16.83;;;15.43;;
23802;SDS011;12082;51.786;6.018;2023-04-25T11:26:18;17.07;;;15.43;;
23802;SDS011;12082;51.786;6.018;2023-04-25T11:28:45;15.30;;;14.10;;
23802;SDS011;12082;51.786;6.018;2023-04-25T11:31:11;14.80;;;13.47;;
23802;SDS011;12082;51.786;6.018;2023-04-25T11:33:36;14.97;;;13.80;;
23802;SDS011;12082;51.786;6.018;2023-04-25T11:36:02;14.10;;;13.10;;
23802;SDS011;12082;51.786;6.018;2023-04-25T11:38:27;14.50;;;13.03;;
23802;SDS011;12082;51.786;6.018;2023-04-25T11:40:53;13.63;;;12.73;;
23802;SDS011;12082;51.786;6.018;2023-04-25T11:43:21;14.27;;;12.60;;
23802;SDS011;12082;51.786;6.018;2023-04-25T11:45:51;14.03;;;12.97;;
23802;SDS011;12082;51.786;6.018;2023-04-25T11:48:17;15.07;;;14.27;;
23802;SDS011;12082;51.786;6.018;2023-04-25T11:50:43;14.13;;;12.83;;
23802;SDS011;12082;51.786;6.018;2023-04-25T11:53:09;14.17;;;13.27;;
23802;SDS011;12082;51.786;6.018;2023-04-25T11:55:35;14.30;;;13.30;;
23802;SDS011;12082;51.786;6.018;2023-04-25T11:58:01;13.63;;;12.67;;
23802;SDS011;12082;51.786;6.018;2023-04-25T12:00:28;14.03;;;12.87;;
23802;SDS011;12082;51.786;6.018;2023-04-25T12:02:55;11.97;;;11.27;;
23802;SDS011;12082;51.786;6.018;2023-04-25T12:05:24;13.07;;;12.27;;
23802;SDS011;12082;51.786;6.018;2023-04-25T12:07:53;13.30;;;12.00;;
23802;SDS011;12082;51.786;6.018;2023-04-25T12:10:19;13.60;;;12.80;;
23802;SDS011;12082;51.786;6.018;2023-04-25T12:12:46;13.07;;;12.17;;
23802;SDS011;12082;51.786;6.018;2023-04-25T12:15:13;13.20;;;12.10;;
23802;SDS011;12082;51.786;6.018;2023-04-25T12:17:41;13.93;;;12.83;;
23802;SDS011;12082;51.786;6.018;2023-04-25T12:20:10;13.97;;;12.70;;
23802;SDS011;12082;51.786;6.018;2023-04-25T12:22:42;13.37;;;12.40;;
23802;SDS011;12082;51.786;6.018;2023-04-25T12:25:09;14.30;;;13.37;;
23802;SDS011;12082;51.786;6.018;2023-04-25T12:27:36;13.40;;;12.30;;
23802;SDS011;12082;51.786;6.018;2023-04-25T12:30:02;15.33;;;12.17;;
23802;SDS011;12082;51.786;6.018;2023-04-25T12:32:28;11.07;;;10.47;;
23802;SDS011;12082;51.786;6.018;2023-04-25T12:34:54;12.90;;;12.00;;
23802;SDS011;12082;51.786;6.018;2023-04-25T12:37:20;13.10;;;11.70;;
23802;SDS011;12082;51.786;6.018;2023-04-25T12:39:46;14.10;;;11.70;;
23802;SDS011;12082;51.786;6.018;2023-04-25T12:42:11;13.07;;;11.40;;
23802;SDS011;12082;51.786;6.018;2023-04-25T12:44:37;12.87;;;11.70;;
23802;SDS011;12082;51.786;6.018;2023-04-25T12:47:03;13.50;;;12.40;;
23802;SDS011;12082;51.786;6.018;2023-04-25T12:49:30;12.83;;;12.03;;
23802;SDS011;12082;51.786;6.018;2023-04-25T12:51:55;13.73;;;12.30;;
23802;SDS011;12082;51.786;6.018;2023-04-25T12:54:21;13.67;;;12.67;;
23802;SDS011;12082;51.786;6.018;2023-04-25T12:56:46;14.63;;;13.63;;
23802;SDS011;12082;51.786;6.018;2023-04-25T12:59:12;14.37;;;13.17;;
23802;SDS011;12082;51.786;6.018;2023-04-25T13:01:38;15.70;;;14.27;;
23802;SDS011;12082;51.786;6.018;2023-04-25T13:04:04;14.40;;;13.60;;
23802;SDS011;12082;51.786;6.018;2023-04-25T13:06:29;14.70;;;13.70;;
23802;SDS011;12082;51.786;6.018;2023-04-25T13:08:55;15.67;;;14.50;;
23802;SDS011;12082;51.786;6.018;2023-04-25T13:11:21;14.27;;;13.17;;
23802;SDS011;12082;51.786;6.018;2023-04-25T13:13:46;15.07;;;13.90;;
23802;SDS011;12082;51.786;6.018;2023-04-25T13:16:12;15.00;;;13.63;;
23802;SDS011;12082;51.786;6.018;2023-04-25T13:18:40;14.87;;;13.60;;
23802;SDS011;12082;51.786;6.018;2023-04-25T13:21:06;14.80;;;13.70;;
23802;SDS011;12082;51.786;6.018;2023-04-25T13:23:33;14.80;;;13.90;;
23802;SDS011;12082;51.786;6.018;2023-04-25T13:25:59;14.40;;;13.60;;
23802;SDS011;12082;51.786;6.018;2023-04-25T13:28:26;15.80;;;14.30;;
23802;SDS011;12082;51.786;6.018;2023-04-25T13:30:53;15.90;;;14.70;;
23802;SDS011;12082;51.786;6.018;2023-04-25T13:33:19;17.37;;;16.23;;
23802;SDS011;12082;51.786;6.018;2023-04-25T13:35:45;16.37;;;15.47;;
23802;SDS011;12082;51.786;6.018;2023-04-25T13:38:12;15.07;;;14.30;;
23802;SDS011;12082;51.786;6.018;2023-04-25T13:40:38;16.00;;;14.93;;
23802;SDS011;12082;51.786;6.018;2023-04-25T13:43:04;15.13;;;14.37;;
23802;SDS011;12082;51.786;6.018;2023-04-25T13:45:31;16.40;;;15.30;;
23802;SDS011;12082;51.786;6.018;2023-04-25T13:47:57;14.90;;;13.90;;
23802;SDS011;12082;51.786;6.018;2023-04-25T13:50:22;15.17;;;14.40;;
23802;SDS011;12082;51.786;6.018;2023-04-25T13:52:48;15.93;;;14.87;;
23802;SDS011;12082;51.786;6.018;2023-04-25T13:55:14;15.90;;;15.00;;
23802;SDS011;12082;51.786;6.018;2023-04-25T13:57:39;17.03;;;15.63;;
23802;SDS011;12082;51.786;6.018;2023-04-25T14:00:05;16.43;;;15.40;;
23802;SDS011;12082;51.786;6.018;2023-04-25T14:02:36;17.17;;;15.83;;
23802;SDS011;12082;51.786;6.018;2023-04-25T14:05:06;16.63;;;15.63;;
23802;SDS011;12082;51.786;6.018;2023-04-25T14:07:33;17.40;;;16.23;;
23802;SDS011;12082;51.786;6.018;2023-04-25T14:09:59;16.40;;;15.50;;
23802;SDS011;12082;51.786;6.018;2023-04-25T14:12:25;17.30;;;15.97;;
23802;SDS011;12082;51.786;6.018;2023-04-25T14:14:51;16.70;;;15.77;;
23802;SDS011;12082;51.786;6.018;2023-04-25T14:17:18;16.63;;;15.57;;
23802;SDS011;12082;51.786;6.018;2023-04-25T14:19:44;16.80;;;15.53;;
23802;SDS011;12082;51.786;6.018;2023-04-25T14:22:12;16.57;;;15.50;;
23802;SDS011;12082;51.786;6.018;2023-04-25T14:24:38;16.17;;;14.97;;
23802;SDS011;12082;51.786;6.018;2023-04-25T14:27:04;17.33;;;15.90;;
23802;SDS011;12082;51.786;6.018;2023-04-25T14:29:30;16.33;;;15.23;;
23802;SDS011;12082;51.786;6.018;2023-04-25T14:31:55;15.90;;;14.83;;
23802;SDS011;12082;51.786;6.018;2023-04-25T14:34:22;16.10;;;14.90;;